Time;durP1;ratioP1;P1;durP2;ratioP2;P2;SDS_P1;SDS_P2;PMS_P1;PMS_P2;Temp;Humidity;BMP_temperature;BMP_pressure;BME280_temperature;BME280_humidity;BME280_pressure;Samples;Min_cycle;Max_cycle;Signal;HPM_P1;HPM_P2
2021/12/22 00:02:08;;;;;;;23.83;17.93;;;;;;;;;;5071697;28;20231;-70
2021/12/22 00:04:44;;;;;;;22.07;17.40;;;;;;;;;;5070835;28;20268;-70
2021/12/22 00:07:11;;;;;;;28.27;18.00;;;;;;;;;;5071650;28;20243;-70
2021/12/22 00:09:37;;;;;;;25.33;18.83;;;;;;;;;;5071254;28;20658;-70
2021/12/22 00:12:06;;;;;;;24.10;17.90;;;;;;;;;;5072912;28;20666;-70
2021/12/22 00:14:32;;;;;;;28.60;17.60;;;;;;;;;;5072416;28;20231;-70
2021/12/22 00:16:59;;;;;;;23.10;15.77;;;;;;;;;;5070264;28;20710;-70
2021/12/22 00:19:25;;;;;;;21.83;16.00;;;;;;;;;;5072441;28;20234;-70
2021/12/22 00:21:51;;;;;;;26.43;16.93;;;;;;;;;;5071513;28;20273;-71
2021/12/22 00:24:18;;;;;;;23.33;16.77;;;;;;;;;;5071257;28;20676;-69
2021/12/22 00:26:44;;;;;;;23.13;16.70;;;;;;;;;;5071053;28;20227;-70
2021/12/22 00:29:13;;;;;;;24.70;16.60;;;;;;;;;;5071517;28;20226;-69
2021/12/22 00:31:43;;;;;;;24.40;17.27;;;;;;;;;;5072201;28;20323;-70
2021/12/22 00:34:16;;;;;;;26.17;17.53;;;;;;;;;;5070209;28;20272;-70
2021/12/22 00:36:42;;;;;;;20.93;15.93;;;;;;;;;;5072530;28;20737;-69
2021/12/22 00:39:09;;;;;;;19.93;14.97;;;;;;;;;;5070912;28;20210;-70
2021/12/22 00:41:36;;;;;;;23.20;16.83;;;;;;;;;;5070559;28;20237;-69
2021/12/22 00:44:02;;;;;;;23.37;16.87;;;;;;;;;;5069479;28;20210;-70
2021/12/22 00:46:30;;;;;;;23.80;17.20;;;;;;;;;;5071627;28;20226;-70
2021/12/22 00:48:56;;;;;;;27.13;16.97;;;;;;;;;;5071290;28;20295;-70
2021/12/22 00:51:22;;;;;;;25.47;16.17;;;;;;;;;;5068945;28;20298;-70
2021/12/22 00:53:49;;;;;;;24.83;17.10;;;;;;;;;;5071225;28;20216;-70
2021/12/22 00:56:15;;;;;;;27.60;17.60;;;;;;;;;;5069945;28;20292;-70
2021/12/22 00:58:42;;;;;;;23.53;18.00;;;;;;;;;;5072219;28;20210;-70
2021/12/22 01:01:08;;;;;;;25.53;18.30;;;;;;;;;;5070933;28;20837;-70
2021/12/22 01:03:36;;;;;;;25.57;17.50;;;;;;;;;;5069690;28;20213;-70
2021/12/22 01:06:04;;;;;;;27.10;17.33;;;;;;;;;;5071711;28;20291;-70
2021/12/22 01:08:30;;;;;;;25.40;18.10;;;;;;;;;;5070938;28;20205;-70
2021/12/22 01:10:57;;;;;;;24.60;17.27;;;;;;;;;;5070111;28;20218;-70
2021/12/22 01:13:23;;;;;;;22.70;16.17;;;;;;;;;;5070909;28;20291;-70
2021/12/22 01:15:50;;;;;;;26.07;17.23;;;;;;;;;;5068953;28;20223;-70
2021/12/22 01:18:28;;;;;;;24.07;16.43;;;;;;;;;;5071525;28;20226;-70
2021/12/22 01:21:05;;;;;;;23.00;16.17;;;;;;;;;;5071318;28;20241;-70
2021/12/22 01:23:35;;;;;;;26.40;16.83;;;;;;;;;;5069861;28;20320;-70
2021/12/22 01:26:03;;;;;;;21.47;16.43;;;;;;;;;;5070823;28;20880;-70
2021/12/22 01:28:30;;;;;;;24.90;17.33;;;;;;;;;;5069479;28;20251;-70
2021/12/22 01:31:02;;;;;;;25.90;18.17;;;;;;;;;;5070038;28;20228;-70
2021/12/22 01:33:28;;;;;;;26.10;17.93;;;;;;;;;;5069275;28;20372;-70
2021/12/22 01:35:56;;;;;;;23.27;17.37;;;;;;;;;;5071322;28;20766;-70
2021/12/22 01:38:23;;;;;;;22.47;16.27;;;;;;;;;;5068864;28;20223;-70
2021/12/22 01:40:50;;;;;;;23.57;17.00;;;;;;;;;;5068726;28;20838;-71
2021/12/22 01:43:17;;;;;;;21.40;16.37;;;;;;;;;;5072156;28;20582;-70
2021/12/22 01:51:36;;;;;;;24.53;15.63;;;;;;;;;;5044869;28;20225;-70
2021/12/22 01:54:07;;;;;;;25.40;17.67;;;;;;;;;;5069564;28;20210;-70
2021/12/22 01:56:34;;;;;;;24.37;17.17;;;;;;;;;;5069069;28;20220;-70
2021/12/22 01:59:04;;;;;;;25.20;17.40;;;;;;;;;;5070117;28;20217;-70
2021/12/22 02:01:32;;;;;;;20.17;15.57;;;;;;;;;;5069298;28;20625;-70
2021/12/22 02:03:58;;;;;;;27.23;18.20;;;;;;;;;;5069056;28;20214;-70
2021/12/22 02:06:25;;;;;;;24.77;17.40;;;;;;;;;;5068989;28;20267;-70
2021/12/22 02:08:54;;;;;;;24.87;17.67;;;;;;;;;;5067816;28;20219;-70
2021/12/22 02:11:22;;;;;;;22.93;16.13;;;;;;;;;;5069333;28;20253;-70
2021/12/22 02:13:55;;;;;;;21.93;16.43;;;;;;;;;;5071451;28;20643;-70
2021/12/22 02:16:26;;;;;;;25.63;17.70;;;;;;;;;;5068965;28;20263;-70
2021/12/22 02:18:54;;;;;;;23.50;17.33;;;;;;;;;;5068915;28;20225;-70
2021/12/22 02:21:24;;;;;;;22.50;17.10;;;;;;;;;;5071097;28;20263;-70
2021/12/22 02:23:51;;;;;;;24.97;17.47;;;;;;;;;;5068019;28;20551;-70
2021/12/22 02:26:22;;;;;;;24.67;18.47;;;;;;;;;;5069085;28;20225;-70
2021/12/22 02:28:57;;;;;;;24.37;16.70;;;;;;;;;;5068384;28;20211;-70
2021/12/22 02:31:24;;;;;;;24.00;17.87;;;;;;;;;;5069826;28;20770;-70
2021/12/22 02:33:51;;;;;;;24.03;16.90;;;;;;;;;;5068936;28;20587;-70
2021/12/22 02:36:24;;;;;;;23.83;16.63;;;;;;;;;;5068401;28;20249;-70
2021/12/22 02:38:53;;;;;;;25.67;18.43;;;;;;;;;;5070042;28;20640;-71
2021/12/22 02:41:25;;;;;;;20.97;15.77;;;;;;;;;;5068754;28;20234;-70
2021/12/22 02:43:54;;;;;;;24.87;17.27;;;;;;;;;;5068402;28;20591;-70
2021/12/22 02:46:22;;;;;;;22.47;16.90;;;;;;;;;;5068085;28;20314;-71
2021/12/22 02:48:50;;;;;;;22.80;17.23;;;;;;;;;;5068734;28;20290;-70
2021/12/22 02:51:17;;;;;;;23.73;17.03;;;;;;;;;;5068435;28;20685;-70
2021/12/22 02:53:49;;;;;;;28.20;18.77;;;;;;;;;;5068549;28;20951;-70
2021/12/22 02:56:31;;;;;;;21.63;16.63;;;;;;;;;;5070299;28;20248;-70
2021/12/22 02:59:09;;;;;;;24.10;16.33;;;;;;;;;;5068635;28;20224;-70
2021/12/22 03:04:25;;;;;;;23.20;17.47;;;;;;;;;;5061088;28;20238;-70
2021/12/22 03:06:56;;;;;;;23.20;16.63;;;;;;;;;;5068789;28;20297;-70
2021/12/22 03:09:25;;;;;;;25.87;17.20;;;;;;;;;;5068982;28;20572;-70
2021/12/22 03:11:54;;;;;;;22.23;16.93;;;;;;;;;;5067969;28;20201;-70
2021/12/22 03:14:21;;;;;;;24.53;16.93;;;;;;;;;;5066353;28;20207;-70
2021/12/22 03:16:50;;;;;;;24.80;17.53;;;;;;;;;;5066785;28;20233;-70
2021/12/22 03:19:18;;;;;;;20.57;16.37;;;;;;;;;;5067634;28;20726;-70
2021/12/22 03:21:47;;;;;;;23.73;18.13;;;;;;;;;;5066030;28;20766;-70
2021/12/22 03:24:15;;;;;;;23.20;17.17;;;;;;;;;;5067613;28;21117;-70
2021/12/22 03:26:44;;;;;;;26.03;17.37;;;;;;;;;;5067298;28;20649;-70
2021/12/22 03:29:12;;;;;;;22.67;16.37;;;;;;;;;;5067253;28;20215;-70
2021/12/22 03:31:39;;;;;;;25.00;17.07;;;;;;;;;;5067824;28;20623;-70
2021/12/22 03:34:07;;;;;;;23.60;17.40;;;;;;;;;;5067151;28;20210;-70
2021/12/22 03:36:34;;;;;;;24.73;17.53;;;;;;;;;;5068962;28;20234;-70
2021/12/22 03:39:01;;;;;;;28.53;18.13;;;;;;;;;;5068782;28;20213;-70
2021/12/22 03:41:27;;;;;;;23.43;17.00;;;;;;;;;;5067741;28;20811;-70
2021/12/22 03:43:55;;;;;;;25.23;18.20;;;;;;;;;;5066599;28;21162;-70
2021/12/22 03:46:21;;;;;;;25.30;17.67;;;;;;;;;;5066537;28;20269;-70
2021/12/22 03:48:48;;;;;;;20.17;15.27;;;;;;;;;;5068446;28;20733;-70
2021/12/22 03:51:14;;;;;;;20.53;16.40;;;;;;;;;;5066607;28;20304;-70
2021/12/22 03:53:41;;;;;;;28.47;17.87;;;;;;;;;;5067882;28;20207;-70
2021/12/22 03:56:07;;;;;;;24.07;16.63;;;;;;;;;;5067644;28;20286;-70
2021/12/22 03:58:34;;;;;;;20.43;15.43;;;;;;;;;;5067522;28;20562;-70
2021/12/22 04:01:01;;;;;;;27.63;17.90;;;;;;;;;;5067795;28;20237;-70
2021/12/22 04:03:32;;;;;;;29.30;19.10;;;;;;;;;;5068389;28;20576;-70
2021/12/22 04:05:58;;;;;;;30.00;18.67;;;;;;;;;;5069069;28;20209;-70
2021/12/22 04:08:25;;;;;;;24.10;16.90;;;;;;;;;;5066568;28;20323;-70
2021/12/22 04:10:52;;;;;;;25.07;17.77;;;;;;;;;;5066083;28;20829;-70
2021/12/22 04:13:20;;;;;;;25.83;17.73;;;;;;;;;;5068031;28;20210;-70
2021/12/22 04:15:46;;;;;;;25.73;18.30;;;;;;;;;;5065744;28;20226;-70
2021/12/22 04:18:15;;;;;;;24.07;17.27;;;;;;;;;;5068273;28;20290;-69
2021/12/22 04:20:41;;;;;;;23.83;17.10;;;;;;;;;;5072408;28;20209;-70
2021/12/22 04:23:08;;;;;;;25.87;16.57;;;;;;;;;;5072493;28;20238;-70
2021/12/22 04:25:36;;;;;;;24.50;18.90;;;;;;;;;;5069011;28;20228;-70
2021/12/22 04:28:09;;;;;;;24.43;17.87;;;;;;;;;;5073070;28;20209;-70
2021/12/22 04:30:38;;;;;;;24.33;18.17;;;;;;;;;;5072151;28;20208;-70
2021/12/22 04:33:05;;;;;;;28.33;18.23;;;;;;;;;;5069302;28;20230;-70
2021/12/22 04:35:34;;;;;;;23.73;17.40;;;;;;;;;;5071311;28;20240;-70
2021/12/22 04:38:00;;;;;;;31.37;19.53;;;;;;;;;;5071764;28;20236;-70
2021/12/22 04:40:27;;;;;;;27.10;18.27;;;;;;;;;;5070619;28;21049;-70
2021/12/22 04:42:54;;;;;;;23.50;17.23;;;;;;;;;;5070135;28;20223;-70
2021/12/22 04:45:20;;;;;;;26.53;17.23;;;;;;;;;;5071949;28;20260;-69
2021/12/22 04:47:48;;;;;;;23.80;17.57;;;;;;;;;;5072259;28;20222;-69
2021/12/22 04:50:17;;;;;;;28.33;17.40;;;;;;;;;;5070811;28;20748;-69
2021/12/22 04:52:52;;;;;;;24.33;17.27;;;;;;;;;;5072526;28;20282;-69
2021/12/22 04:55:19;;;;;;;26.97;17.23;;;;;;;;;;5071040;28;20217;-69
2021/12/22 04:57:45;;;;;;;24.83;16.57;;;;;;;;;;5070236;28;20585;-69
2021/12/22 05:00:15;;;;;;;26.17;19.00;;;;;;;;;;5069526;28;20210;-69
2021/12/22 05:02:42;;;;;;;23.23;17.07;;;;;;;;;;5071943;28;20238;-69
2021/12/22 05:05:09;;;;;;;28.40;18.60;;;;;;;;;;5070531;28;20215;-69
2021/12/22 05:07:35;;;;;;;22.10;15.47;;;;;;;;;;5070812;28;20223;-69
2021/12/22 05:10:04;;;;;;;23.63;16.50;;;;;;;;;;5070176;28;20222;-69
2021/12/22 05:12:30;;;;;;;25.87;17.20;;;;;;;;;;5071952;28;20853;-69
2021/12/22 05:14:57;;;;;;;25.40;16.77;;;;;;;;;;5071739;28;20263;-69
2021/12/22 05:17:37;;;;;;;27.07;18.13;;;;;;;;;;5069561;28;20233;-69
2021/12/22 05:20:05;;;;;;;25.57;16.60;;;;;;;;;;5072024;28;20227;-69
2021/12/22 05:22:31;;;;;;;25.43;17.07;;;;;;;;;;5070855;28;20235;-69
2021/12/22 05:24:59;;;;;;;25.97;16.93;;;;;;;;;;5068340;28;20288;-69
2021/12/22 05:27:27;;;;;;;26.43;17.10;;;;;;;;;;5071781;28;20267;-69
2021/12/22 05:29:53;;;;;;;22.70;16.47;;;;;;;;;;5069963;28;20209;-69
2021/12/22 05:32:22;;;;;;;29.00;24.13;;;;;;;;;;5069479;28;20470;-72
2021/12/22 05:34:48;;;;;;;26.43;18.33;;;;;;;;;;5069246;28;20247;-72
2021/12/22 05:37:15;;;;;;;24.10;18.27;;;;;;;;;;5071902;28;20215;-72
2021/12/22 05:39:41;;;;;;;27.77;18.03;;;;;;;;;;5070430;28;20279;-73
2021/12/22 05:42:08;;;;;;;22.90;16.97;;;;;;;;;;5068557;28;20597;-73
2021/12/22 05:44:36;;;;;;;24.90;17.07;;;;;;;;;;5071962;28;20229;-73
2021/12/22 05:47:03;;;;;;;27.20;17.07;;;;;;;;;;5070278;28;20350;-74
2021/12/22 05:49:29;;;;;;;26.50;16.93;;;;;;;;;;5069781;28;20241;-73
2021/12/22 05:51:56;;;;;;;25.50;17.30;;;;;;;;;;5070738;28;20206;-73
2021/12/22 05:54:23;;;;;;;23.87;16.53;;;;;;;;;;5070602;28;20214;-73
2021/12/22 05:56:50;;;;;;;23.17;17.47;;;;;;;;;;5069939;28;20214;-73
2021/12/22 05:59:16;;;;;;;24.87;16.30;;;;;;;;;;5070669;28;20264;-73
2021/12/22 06:01:44;;;;;;;24.20;17.13;;;;;;;;;;5070772;28;20940;-73
2021/12/22 06:04:10;;;;;;;26.43;17.50;;;;;;;;;;5067735;28;20505;-73
2021/12/22 06:06:37;;;;;;;25.73;17.60;;;;;;;;;;5070127;28;20256;-73
2021/12/22 06:09:03;;;;;;;24.70;16.40;;;;;;;;;;5069628;28;20713;-73
2021/12/22 06:11:30;;;;;;;23.53;15.03;;;;;;;;;;5069395;28;20286;-73
2021/12/22 06:13:57;;;;;;;24.57;16.57;;;;;;;;;;5066879;28;21168;-73
2021/12/22 06:16:24;;;;;;;26.47;15.50;;;;;;;;;;5067356;28;20225;-75
2021/12/22 06:18:57;;;;;;;23.53;16.30;;;;;;;;;;5069919;28;20302;-75
2021/12/22 06:21:24;;;;;;;27.63;17.13;;;;;;;;;;5069550;28;20209;-75
2021/12/22 06:23:51;;;;;;;25.57;16.63;;;;;;;;;;5069200;28;20217;-76
2021/12/22 06:26:17;;;;;;;23.73;15.40;;;;;;;;;;5067838;28;20606;-75
2021/12/22 06:28:44;;;;;;;22.13;15.53;;;;;;;;;;5068934;28;20218;-75
2021/12/22 06:31:10;;;;;;;23.10;15.43;;;;;;;;;;5070673;28;20282;-75
2021/12/22 06:33:36;;;;;;;21.10;16.00;;;;;;;;;;5068519;28;20206;-74
2021/12/22 06:36:05;;;;;;;22.97;14.53;;;;;;;;;;5067369;28;20218;-75
2021/12/22 06:38:31;;;;;;;26.83;16.10;;;;;;;;;;5070203;28;20217;-72
2021/12/22 06:40:59;;;;;;;22.70;15.80;;;;;;;;;;5068093;28;20551;-75
2021/12/22 06:43:25;;;;;;;23.40;16.13;;;;;;;;;;5070466;28;20225;-75
2021/12/22 06:45:52;;;;;;;23.63;15.63;;;;;;;;;;5068933;28;20225;-75
2021/12/22 06:48:19;;;;;;;25.67;15.37;;;;;;;;;;5068177;28;20266;-73
2021/12/22 06:50:45;;;;;;;24.37;15.37;;;;;;;;;;5069523;28;20230;-75
2021/12/22 06:53:13;;;;;;;23.33;15.80;;;;;;;;;;5068581;28;20205;-75
2021/12/22 06:55:39;;;;;;;21.97;15.70;;;;;;;;;;5067436;28;20221;-75
2021/12/22 06:58:06;;;;;;;25.07;15.20;;;;;;;;;;5068362;28;20289;-75
2021/12/22 07:00:35;;;;;;;28.70;16.77;;;;;;;;;;5067796;28;20218;-75
2021/12/22 07:03:04;;;;;;;25.13;15.83;;;;;;;;;;5066945;28;20316;-76
2021/12/22 07:05:30;;;;;;;24.87;16.50;;;;;;;;;;5069381;28;20215;-75
2021/12/22 07:07:57;;;;;;;25.30;15.50;;;;;;;;;;5068167;28;20626;-76
2021/12/22 07:10:25;;;;;;;25.20;15.63;;;;;;;;;;5067398;28;20249;-75
2021/12/22 07:12:51;;;;;;;23.37;15.37;;;;;;;;;;5067002;28;20254;-76
2021/12/22 07:15:19;;;;;;;24.47;15.13;;;;;;;;;;5066130;28;20206;-76
2021/12/22 07:17:47;;;;;;;21.83;15.23;;;;;;;;;;5068463;28;20818;-76
2021/12/22 07:20:15;;;;;;;24.20;16.00;;;;;;;;;;5067690;28;20209;-76
2021/12/22 07:22:42;;;;;;;23.07;15.40;;;;;;;;;;5067449;28;20737;-75
2021/12/22 07:25:12;;;;;;;25.73;16.80;;;;;;;;;;5065527;28;20283;-76
2021/12/22 07:27:39;;;;;;;23.27;16.03;;;;;;;;;;5065263;28;20233;-76
2021/12/22 07:30:08;;;;;;;22.40;15.63;;;;;;;;;;5067401;28;20219;-76
2021/12/22 07:32:34;;;;;;;22.87;15.30;;;;;;;;;;5065666;28;20229;-76
2021/12/22 07:35:05;;;;;;;24.93;16.00;;;;;;;;;;5064360;28;20307;-76
2021/12/22 07:37:37;;;;;;;26.37;16.20;;;;;;;;;;5067327;28;20209;-76
2021/12/22 07:40:05;;;;;;;23.37;15.90;;;;;;;;;;5066307;28;20226;-76
2021/12/22 07:42:31;;;;;;;21.77;15.83;;;;;;;;;;5065796;28;20229;-76
2021/12/22 07:44:59;;;;;;;22.37;15.70;;;;;;;;;;5067986;28;20210;-76
2021/12/22 07:47:26;;;;;;;21.93;14.37;;;;;;;;;;5065290;28;20586;-74
2021/12/22 07:49:52;;;;;;;20.30;13.97;;;;;;;;;;5068659;28;20295;-76
2021/12/22 07:52:19;;;;;;;26.37;15.17;;;;;;;;;;5068318;28;20226;-76
2021/12/22 07:54:45;;;;;;;21.97;14.77;;;;;;;;;;5070083;28;20221;-76
2021/12/22 07:57:13;;;;;;;21.47;14.77;;;;;;;;;;5069597;28;20210;-76
2021/12/22 07:59:39;;;;;;;24.57;15.13;;;;;;;;;;5069326;28;20215;-76
2021/12/22 08:02:09;;;;;;;21.10;14.90;;;;;;;;;;5071036;28;20283;-75
2021/12/22 08:04:36;;;;;;;22.33;15.03;;;;;;;;;;5070393;28;20406;-76
2021/12/22 08:07:02;;;;;;;22.43;14.57;;;;;;;;;;5068138;28;20209;-76
2021/12/22 08:09:29;;;;;;;20.67;14.77;;;;;;;;;;5071202;28;20582;-76
2021/12/22 08:12:04;;;;;;;24.20;13.70;;;;;;;;;;5069591;28;20219;-76
2021/12/22 08:14:30;;;;;;;22.13;14.90;;;;;;;;;;5070138;28;20553;-76
2021/12/22 08:16:57;;;;;;;21.43;14.30;;;;;;;;;;5068502;28;20286;-76
2021/12/22 08:19:25;;;;;;;21.77;14.40;;;;;;;;;;5068422;28;20209;-76
2021/12/22 08:21:51;;;;;;;19.17;13.10;;;;;;;;;;5069783;28;20205;-76
2021/12/22 08:24:18;;;;;;;23.37;14.73;;;;;;;;;;5067948;28;20229;-76
2021/12/22 08:26:45;;;;;;;21.77;14.63;;;;;;;;;;5068939;28;20688;-76
2021/12/22 08:29:11;;;;;;;20.80;13.97;;;;;;;;;;5069329;28;20206;-77
2021/12/22 08:31:37;;;;;;;22.37;14.67;;;;;;;;;;5071065;28;20332;-76
2021/12/22 08:34:05;;;;;;;23.13;15.10;;;;;;;;;;5069395;28;20512;-76
2021/12/22 08:39:17;;;;;;;22.70;14.60;;;;;;;;;;5068929;28;20222;-76
2021/12/22 08:41:47;;;;;;;22.07;13.93;;;;;;;;;;5067435;28;20274;-76
2021/12/22 08:44:16;;;;;;;20.93;14.73;;;;;;;;;;5066954;28;21200;-76
2021/12/22 08:46:46;;;;;;;19.20;14.83;;;;;;;;;;5069084;28;20233;-76
2021/12/22 08:49:13;;;;;;;23.50;14.93;;;;;;;;;;5069769;28;20244;-76
2021/12/22 08:51:41;;;;;;;19.77;13.60;;;;;;;;;;5068211;28;20210;-76
2021/12/22 08:54:08;;;;;;;24.87;14.97;;;;;;;;;;5066952;28;20213;-76
2021/12/22 08:56:35;;;;;;;24.67;13.53;;;;;;;;;;5068737;28;20226;-77
2021/12/22 08:59:03;;;;;;;22.57;14.17;;;;;;;;;;5071033;28;20201;-74
2021/12/22 09:01:30;;;;;;;26.23;13.60;;;;;;;;;;5069426;28;20259;-73
2021/12/22 09:03:56;;;;;;;22.00;14.80;;;;;;;;;;5070024;28;20352;-76
2021/12/22 09:06:23;;;;;;;21.83;14.67;;;;;;;;;;5068396;28;20561;-76
2021/12/22 09:08:52;;;;;;;25.03;14.67;;;;;;;;;;5068895;28;20215;-76
2021/12/22 09:11:18;;;;;;;22.23;13.17;;;;;;;;;;5070644;28;20324;-76
2021/12/22 09:13:45;;;;;;;19.57;14.73;;;;;;;;;;5067819;28;20275;-76
2021/12/22 09:16:13;;;;;;;20.87;14.23;;;;;;;;;;5069641;28;20222;-76
2021/12/22 09:18:39;;;;;;;20.20;14.13;;;;;;;;;;5068288;28;20688;-76
2021/12/22 09:21:08;;;;;;;24.50;14.37;;;;;;;;;;5069541;28;20208;-76
2021/12/22 09:23:35;;;;;;;21.73;14.37;;;;;;;;;;5070834;28;20530;-76
2021/12/22 09:26:05;;;;;;;23.57;15.30;;;;;;;;;;5069070;28;20229;-76
2021/12/22 09:28:31;;;;;;;21.60;14.03;;;;;;;;;;5068354;28;20662;-74
2021/12/22 09:30:58;;;;;;;19.47;13.97;;;;;;;;;;5070181;28;20360;-76
2021/12/22 09:33:25;;;;;;;23.77;15.17;;;;;;;;;;5068845;28;20218;-76
2021/12/22 09:35:53;;;;;;;24.77;14.57;;;;;;;;;;5067126;28;20221;-76
2021/12/22 09:38:20;;;;;;;20.70;14.47;;;;;;;;;;5069284;28;20229;-76
2021/12/22 09:40:48;;;;;;;21.20;14.23;;;;;;;;;;5069534;28;20316;-76
2021/12/22 09:43:16;;;;;;;21.93;15.00;;;;;;;;;;5070775;28;20829;-76
2021/12/22 09:45:45;;;;;;;21.87;14.80;;;;;;;;;;5067766;28;20358;-76
2021/12/22 09:48:28;;;;;;;20.83;14.97;;;;;;;;;;5068826;28;20210;-76
2021/12/22 09:52:16;;;;;;;22.17;14.50;;;;;;;;;;5069700;28;20243;-76
2021/12/22 09:53:44;;;;;;;20.40;13.73;;;;;;;;;;5067571;28;20209;-76
2021/12/22 09:56:12;;;;;;;21.43;12.53;;;;;;;;;;5068682;28;20738;-77
2021/12/22 09:58:42;;;;;;;21.30;12.90;;;;;;;;;;5067885;28;20217;-76
2021/12/22 10:01:09;;;;;;;22.17;14.00;;;;;;;;;;5069563;28;20252;-77
2021/12/22 10:03:36;;;;;;;16.53;12.97;;;;;;;;;;5067926;28;20226;-76
2021/12/22 10:06:03;;;;;;;19.43;13.30;;;;;;;;;;5068035;28;20215;-76
2021/12/22 10:08:30;;;;;;;19.93;13.37;;;;;;;;;;5068312;28;20798;-76
2021/12/22 10:11:04;;;;;;;18.83;13.37;;;;;;;;;;5065924;28;20234;-77
2021/12/22 10:13:31;;;;;;;24.10;14.13;;;;;;;;;;5068305;28;20211;-77
2021/12/22 10:16:00;;;;;;;19.33;13.53;;;;;;;;;;5069262;28;20506;-76
2021/12/22 10:18:29;;;;;;;17.23;13.80;;;;;;;;;;5067146;28;20271;-76
2021/12/22 10:21:09;;;;;;;18.53;13.33;;;;;;;;;;5069309;28;20220;-77
2021/12/22 10:23:36;;;;;;;17.73;13.90;;;;;;;;;;5067480;28;20244;-77
2021/12/22 10:26:05;;;;;;;20.07;14.13;;;;;;;;;;5067115;28;20223;-77
2021/12/22 10:28:46;;;;;;;20.90;14.13;;;;;;;;;;5066867;28;20206;-77
2021/12/22 10:31:14;;;;;;;19.70;13.80;;;;;;;;;;5066202;28;20690;-77
2021/12/22 10:33:43;;;;;;;20.37;13.73;;;;;;;;;;5069282;28;20564;-77
2021/12/22 10:36:12;;;;;;;18.97;12.80;;;;;;;;;;5067880;28;20598;-77
2021/12/22 10:38:39;;;;;;;17.87;14.07;;;;;;;;;;5068113;28;20678;-77
2021/12/22 10:41:09;;;;;;;18.57;13.97;;;;;;;;;;5068605;28;20234;-77
2021/12/22 10:43:41;;;;;;;20.00;14.97;;;;;;;;;;5070777;28;20226;-79
2021/12/22 10:46:14;;;;;;;18.50;13.53;;;;;;;;;;5071295;28;20324;-78
2021/12/22 10:51:28;;;;;;;18.70;14.87;;;;;;;;;;5070885;28;20654;-78
2021/12/22 10:53:56;;;;;;;16.27;13.20;;;;;;;;;;5068273;28;20277;-76
2021/12/22 10:56:27;;;;;;;19.60;12.97;;;;;;;;;;5065960;28;20228;-75
2021/12/22 10:59:02;;;;;;;18.97;13.60;;;;;;;;;;5069183;28;20350;-76
2021/12/22 11:01:29;;;;;;;17.80;13.90;;;;;;;;;;5066486;28;20246;-76
2021/12/22 11:04:03;;;;;;;19.37;12.80;;;;;;;;;;5067747;28;20232;-76
2021/12/22 11:06:32;;;;;;;18.47;13.30;;;;;;;;;;5067494;28;20379;-77
2021/12/22 11:09:03;;;;;;;21.03;13.63;;;;;;;;;;5069024;28;20218;-76
2021/12/22 11:11:34;;;;;;;25.93;13.57;;;;;;;;;;5066683;28;20221;-77
2021/12/22 11:14:10;;;;;;;20.87;13.97;;;;;;;;;;5067307;28;20224;-77
2021/12/22 11:17:01;;;;;;;20.80;14.07;;;;;;;;;;5067196;28;20272;-77
2021/12/22 11:19:30;;;;;;;23.13;16.67;;;;;;;;;;5065638;28;20657;-77
2021/12/22 11:22:03;;;;;;;24.20;17.30;;;;;;;;;;5066227;28;20216;-76
2021/12/22 11:24:32;;;;;;;35.43;30.00;;;;;;;;;;5066558;28;20292;-75
2021/12/22 11:26:59;;;;;;;26.77;19.77;;;;;;;;;;5065717;28;20220;-74
2021/12/22 11:29:26;;;;;;;32.07;25.30;;;;;;;;;;5067614;28;20211;-76
2021/12/22 11:31:53;;;;;;;29.23;19.07;;;;;;;;;;5066611;28;20235;-76
2021/12/22 11:34:21;;;;;;;20.63;16.30;;;;;;;;;;5066486;28;20237;-76
2021/12/22 11:36:50;;;;;;;21.40;15.80;;;;;;;;;;5067088;28;20300;-75
2021/12/22 11:39:17;;;;;;;28.00;18.83;;;;;;;;;;5066857;28;20311;-75
2021/12/22 11:41:54;;;;;;;24.00;18.10;;;;;;;;;;5064904;28;20408;-75
2021/12/22 11:44:21;;;;;;;46.17;33.10;;;;;;;;;;5067268;28;20239;-75
2021/12/22 11:46:48;;;;;;;29.50;23.27;;;;;;;;;;5065305;28;20230;-75
2021/12/22 11:49:19;;;;;;;42.27;31.13;;;;;;;;;;5066885;28;20964;-76
2021/12/22 11:51:45;;;;;;;32.17;22.77;;;;;;;;;;5064368;28;20259;-75
2021/12/22 11:54:14;;;;;;;40.13;27.93;;;;;;;;;;5068783;28;20209;-75
2021/12/22 11:56:44;;;;;;;24.43;19.27;;;;;;;;;;5069461;28;20294;-75
2021/12/22 11:59:36;;;;;;;37.30;25.53;;;;;;;;;;5066810;28;20362;-75
2021/12/22 12:02:21;;;;;;;80.37;71.50;;;;;;;;;;5067916;28;20224;-74
2021/12/22 12:04:51;;;;;;;23.37;17.90;;;;;;;;;;5065280;28;20704;-75
2021/12/22 12:07:42;;;;;;;21.67;14.97;;;;;;;;;;5066388;28;20243;-74
2021/12/22 12:10:34;;;;;;;21.80;14.97;;;;;;;;;;5056834;28;20287;-75
2021/12/22 12:13:06;;;;;;;22.90;14.07;;;;;;;;;;5066719;28;21119;-75
2021/12/22 12:22:10;;;;;;;19.33;13.30;;;;;;;;;;5061053;28;20517;-76
2021/12/22 12:24:45;;;;;;;19.37;14.13;;;;;;;;;;5060600;28;20237;-76
2021/12/22 12:27:33;;;;;;;24.67;17.60;;;;;;;;;;5061762;28;20229;-76
2021/12/22 12:30:01;;;;;;;26.87;16.70;;;;;;;;;;5058951;28;20286;-76
2021/12/22 12:33:10;;;;;;;31.13;18.67;;;;;;;;;;5060319;28;20256;-77
2021/12/22 12:35:48;;;;;;;20.07;15.63;;;;;;;;;;5063959;28;20212;-78
2021/12/22 12:38:17;;;;;;;18.53;15.47;;;;;;;;;;5062372;28;20215;-78
2021/12/22 12:41:12;;;;;;;21.63;15.27;;;;;;;;;;5067626;28;20687;-78
2021/12/22 12:43:55;;;;;;;18.73;13.93;;;;;;;;;;5065901;28;20225;-76
2021/12/22 12:46:39;;;;;;;16.83;13.40;;;;;;;;;;5068116;28;20240;-78
2021/12/22 12:49:36;;;;;;;14.60;11.97;;;;;;;;;;5066056;28;20608;-78
2021/12/22 12:52:09;;;;;;;18.37;12.10;;;;;;;;;;5069119;28;20217;-79
2021/12/22 12:54:40;;;;;;;16.63;12.37;;;;;;;;;;5067321;28;20278;-77
2021/12/22 12:57:30;;;;;;;17.13;12.60;;;;;;;;;;5063115;28;20711;-77
2021/12/22 13:00:06;;;;;;;15.77;12.00;;;;;;;;;;5064292;28;20293;-77
2021/12/22 13:02:35;;;;;;;16.50;12.90;;;;;;;;;;5066486;28;20565;-77
2021/12/22 13:05:06;;;;;;;13.13;10.63;;;;;;;;;;5065202;28;20232;-78
2021/12/22 13:07:33;;;;;;;18.73;12.27;;;;;;;;;;5064949;28;20201;-78
2021/12/22 13:10:02;;;;;;;16.07;11.27;;;;;;;;;;5062440;28;20228;-77
2021/12/22 13:13:00;;;;;;;14.60;11.90;;;;;;;;;;5063193;28;20270;-78
2021/12/22 13:15:46;;;;;;;15.20;10.90;;;;;;;;;;5063366;28;20252;-78
2021/12/22 13:18:16;;;;;;;16.13;11.87;;;;;;;;;;5061664;28;20408;-78
2021/12/22 13:20:44;;;;;;;19.00;12.30;;;;;;;;;;5065631;28;20208;-77
2021/12/22 13:23:13;;;;;;;18.77;11.93;;;;;;;;;;5064363;28;20772;-77
2021/12/22 13:25:41;;;;;;;16.97;12.70;;;;;;;;;;5064806;28;20360;-77
2021/12/22 13:28:10;;;;;;;15.97;11.67;;;;;;;;;;5060761;28;21154;-77
2021/12/22 13:30:41;;;;;;;16.77;12.40;;;;;;;;;;5063670;28;20557;-77
2021/12/22 13:33:09;;;;;;;17.57;12.53;;;;;;;;;;5063359;28;20570;-77
2021/12/22 13:35:40;;;;;;;15.50;11.90;;;;;;;;;;5062519;28;20218;-77
2021/12/22 13:38:08;;;;;;;14.53;11.73;;;;;;;;;;5060227;28;20218;-77
2021/12/22 13:40:37;;;;;;;14.70;12.37;;;;;;;;;;5063086;28;20248;-77
2021/12/22 13:43:04;;;;;;;16.10;12.63;;;;;;;;;;5060893;28;20209;-77
2021/12/22 13:45:30;;;;;;;16.67;12.10;;;;;;;;;;5062806;28;20444;-77
2021/12/22 13:47:58;;;;;;;14.63;10.83;;;;;;;;;;5060176;28;20217;-77
2021/12/22 13:50:25;;;;;;;17.53;11.30;;;;;;;;;;5060548;28;20251;-77
2021/12/22 13:52:51;;;;;;;17.60;12.00;;;;;;;;;;5063879;28;20263;-77
2021/12/22 13:55:19;;;;;;;14.20;11.47;;;;;;;;;;5062043;28;20623;-77
2021/12/22 13:57:45;;;;;;;12.90;10.40;;;;;;;;;;5061488;28;20267;-77
2021/12/22 14:00:19;;;;;;;17.20;11.83;;;;;;;;;;5060704;28;20205;-77
2021/12/22 14:02:46;;;;;;;14.50;11.17;;;;;;;;;;5064000;28;20233;-77
2021/12/22 14:05:16;;;;;;;16.00;11.20;;;;;;;;;;5062236;28;20244;-79
2021/12/22 14:07:43;;;;;;;19.67;11.67;;;;;;;;;;5063311;28;20209;-77
2021/12/22 14:10:12;;;;;;;15.27;11.30;;;;;;;;;;5063782;28;20666;-77
2021/12/22 14:12:40;;;;;;;16.80;11.63;;;;;;;;;;5062377;28;20247;-77
2021/12/22 14:15:08;;;;;;;16.40;11.63;;;;;;;;;;5062409;28;20209;-78
2021/12/22 14:17:37;;;;;;;15.73;11.80;;;;;;;;;;5060878;28;20229;-77
2021/12/22 14:20:14;;;;;;;14.87;11.60;;;;;;;;;;5062283;28;20210;-77
2021/12/22 14:22:45;;;;;;;15.37;12.23;;;;;;;;;;5063347;28;20217;-77
2021/12/22 14:25:16;;;;;;;18.50;12.37;;;;;;;;;;5062070;28;20216;-77
2021/12/22 14:27:45;;;;;;;16.10;11.77;;;;;;;;;;5062344;28;20220;-77
2021/12/22 14:30:23;;;;;;;19.17;13.40;;;;;;;;;;5062429;28;20569;-77
2021/12/22 14:32:55;;;;;;;18.20;13.60;;;;;;;;;;5063826;28;20797;-77
2021/12/22 14:35:21;;;;;;;21.10;15.07;;;;;;;;;;5063645;28;20255;-79
2021/12/22 14:37:58;;;;;;;18.40;14.13;;;;;;;;;;5066474;28;20245;-77
2021/12/22 14:40:26;;;;;;;18.73;14.30;;;;;;;;;;5062240;28;20855;-77
2021/12/22 14:43:03;;;;;;;17.63;14.30;;;;;;;;;;5062157;28;21020;-77
2021/12/22 14:45:32;;;;;;;17.23;14.77;;;;;;;;;;5064542;28;20235;-77
2021/12/22 14:48:07;;;;;;;23.50;16.20;;;;;;;;;;5062708;28;20617;-77
2021/12/22 14:50:35;;;;;;;21.70;15.80;;;;;;;;;;5062454;28;20235;-77